createdAt,value
2023-01-21T00:02:42.743Z,11.48
2023-01-21T00:07:48.767Z,11.95
2023-01-21T00:12:53.458Z,13.57
2023-01-21T00:17:57.954Z,10.95
2023-01-21T00:23:03.975Z,11.60
2023-01-21T00:28:08.815Z,12.38
2023-01-21T00:33:13.436Z,12.15
2023-01-21T00:38:20.410Z,11.13
2023-01-21T00:43:25.226Z,12.30
2023-01-21T00:48:30.055Z,10.25
2023-01-21T00:53:38.189Z,10.45
2023-01-21T00:58:44.316Z,11.55
2023-01-21T01:03:51.005Z,10.38
2023-01-21T01:08:58.517Z,11.32
2023-01-21T01:14:03.447Z,11.40
2023-01-21T01:24:13.169Z,10.02
2023-01-21T01:29:18.626Z,10.65
2023-01-21T01:34:23.500Z,9.35
2023-01-21T01:39:29.357Z,9.13
2023-01-21T01:44:58.237Z,9.85
2023-01-21T01:50:07.339Z,9.32
2023-01-21T01:55:15.567Z,7.78
2023-01-21T02:00:21.744Z,8.60
2023-01-21T02:05:26.345Z,8.40
2023-01-21T02:10:34.435Z,8.35
2023-01-21T02:15:49.143Z,7.85
2023-01-21T02:27:15.914Z,7.65
2023-01-21T02:33:14.310Z,7.95
2023-01-21T02:38:27.816Z,8.13
2023-01-21T02:43:44.425Z,7.50
2023-01-21T02:48:59.229Z,7.35
2023-01-21T02:54:18.121Z,7.03
2023-01-21T02:59:22.634Z,5.53
2023-01-21T03:09:44.114Z,6.55
2023-01-21T03:15:18.721Z,6.45
2023-01-21T03:20:29.439Z,7.05
2023-01-21T03:25:36.269Z,7.20
2023-01-21T03:30:46.388Z,6.72
2023-01-21T03:35:55.871Z,5.80
2023-01-21T03:41:06.522Z,7.00
2023-01-21T03:46:17.536Z,7.38
2023-01-21T03:51:28.883Z,6.95
2023-01-21T03:56:33.776Z,7.60
2023-01-21T04:01:39.566Z,7.43
2023-01-21T04:06:45.362Z,6.07
2023-01-21T04:11:49.828Z,8.05
2023-01-21T04:22:00.061Z,6.70
2023-01-21T04:27:05.040Z,7.38
2023-01-21T04:32:09.679Z,6.22
2023-01-21T04:37:15.939Z,6.85
2023-01-21T04:42:20.776Z,7.43
2023-01-21T04:47:25.777Z,7.07
2023-01-21T04:52:31.818Z,6.32
2023-01-21T04:57:37.204Z,6.60
2023-01-21T05:02:41.696Z,7.50
2023-01-21T05:12:52.821Z,6.53
2023-01-21T05:17:57.518Z,5.45
2023-01-21T05:23:04.588Z,6.00
2023-01-21T05:28:09.859Z,6.20
2023-01-21T05:33:14.541Z,6.45
2023-01-21T05:38:20.466Z,6.57
2023-01-21T05:43:25.081Z,6.30
2023-01-21T05:48:30.247Z,6.55
2023-01-21T05:53:36.139Z,5.43
2023-01-21T05:58:41.019Z,6.57
2023-01-21T06:08:51.546Z,6.70
2023-01-21T06:13:56.247Z,7.22
2023-01-21T06:19:00.999Z,6.90
2023-01-21T06:24:07.927Z,6.35
2023-01-21T06:29:12.465Z,5.38
2023-01-21T06:34:16.913Z,7.03
2023-01-21T06:39:22.800Z,7.50
2023-01-21T06:44:27.558Z,7.50
2023-01-21T06:54:38.000Z,7.05
2023-01-21T06:59:43.043Z,7.80
2023-01-21T07:04:50.143Z,7.35
2023-01-21T07:09:56.072Z,6.90
2023-01-21T07:15:00.261Z,7.28
2023-01-21T07:20:05.609Z,7.63
2023-01-21T07:25:12.094Z,8.23
2023-01-21T07:30:21.344Z,7.13
2023-01-21T07:35:25.595Z,7.45
2023-01-21T07:40:31.912Z,6.97
2023-01-21T07:45:36.307Z,6.68
2023-01-21T07:50:40.844Z,6.22
2023-01-21T07:55:46.559Z,6.88
2023-01-21T08:00:51.426Z,6.57
2023-01-21T08:05:55.836Z,7.50
2023-01-21T08:11:01.952Z,6.50
2023-01-21T08:16:07.651Z,7.28
2023-01-21T08:21:12.196Z,7.18
2023-01-21T08:26:18.231Z,6.00
2023-01-21T08:31:22.912Z,5.93
2023-01-21T08:41:33.364Z,6.33
2023-01-21T08:46:37.621Z,6.13
2023-01-21T08:51:42.622Z,6.45
2023-01-21T08:56:48.496Z,6.00
2023-01-21T09:01:52.791Z,7.60
2023-01-21T09:06:57.399Z,6.63
2023-01-21T09:17:07.673Z,6.07
2023-01-21T09:22:14.003Z,5.60
2023-01-21T09:27:20.980Z,5.57
2023-01-21T09:32:26.108Z,5.85
2023-01-21T09:37:34.688Z,6.60
2023-01-21T09:42:42.866Z,7.35
2023-01-21T09:47:51.007Z,6.43
2023-01-21T09:53:02.671Z,6.50
2023-01-21T09:58:25.088Z,8.10
2023-01-21T10:03:40.340Z,7.38
2023-01-21T10:09:20.599Z,7.15
2023-01-21T10:14:52.273Z,8.20
2023-01-21T10:20:07.536Z,9.48
2023-01-21T10:25:28.842Z,10.55
2023-01-21T10:30:40.522Z,9.45
2023-01-21T10:36:20.767Z,9.38
2023-01-21T10:42:16.369Z,8.88
2023-01-21T10:47:34.234Z,8.90
2023-01-21T10:52:47.418Z,9.35
2023-01-21T10:57:59.950Z,8.52
2023-01-21T11:03:15.611Z,9.10
2023-01-21T11:08:24.611Z,9.20
2023-01-21T11:13:29.426Z,9.60
2023-01-21T11:18:39.202Z,9.23
2023-01-21T11:23:43.471Z,10.00
2023-01-21T11:28:47.962Z,9.73
2023-01-21T11:33:54.165Z,10.00
2023-01-21T11:39:03.701Z,10.68
2023-01-21T11:44:18.595Z,10.63
2023-01-21T11:49:28.618Z,10.65
2023-01-21T11:54:40.516Z,11.50
2023-01-21T11:59:49.084Z,11.20
2023-01-21T12:05:00.809Z,13.15
2023-01-21T12:10:24.300Z,11.30
2023-01-21T12:15:46.480Z,13.55
2023-01-21T12:21:00.917Z,11.13
2023-01-21T12:26:21.875Z,10.90
2023-01-21T12:31:33.005Z,10.43
2023-01-21T12:36:46.208Z,12.32
2023-01-21T12:42:02.662Z,12.00
2023-01-21T12:47:19.463Z,11.57
2023-01-21T12:52:34.749Z,11.70
2023-01-21T12:57:45.758Z,10.45
2023-01-21T13:03:09.823Z,11.57
2023-01-21T13:08:42.083Z,10.63
2023-01-21T13:13:58.602Z,11.13
2023-01-21T13:19:03.370Z,12.05
2023-01-21T13:24:18.399Z,12.35
2023-01-21T13:29:38.999Z,12.25
2023-01-21T13:34:55.205Z,12.82
2023-01-21T13:40:26.995Z,13.45
2023-01-21T13:45:48.427Z,11.13
2023-01-21T13:51:16.624Z,13.82
2023-01-21T13:56:40.586Z,12.48
2023-01-21T14:01:50.591Z,13.60
2023-01-21T14:07:00.648Z,14.55
2023-01-21T14:12:15.094Z,14.25
2023-01-21T14:23:24.069Z,13.02
2023-01-21T14:28:39.809Z,12.80
2023-01-21T14:33:48.843Z,13.93
2023-01-21T14:39:04.649Z,15.43
2023-01-21T14:44:37.881Z,15.77
2023-01-21T14:49:45.537Z,15.13
2023-01-21T14:54:50.439Z,16.35
2023-01-21T15:00:21.573Z,14.45
2023-01-21T15:05:31.399Z,15.63
2023-01-21T15:10:40.158Z,15.27
2023-01-21T15:16:12.981Z,18.13
2023-01-21T15:21:38.059Z,20.55
2023-01-21T15:26:42.386Z,16.67
2023-01-21T15:31:48.403Z,15.10
2023-01-21T15:36:58.074Z,15.57
2023-01-21T15:42:19.210Z,19.30
2023-01-21T15:47:55.497Z,18.13
2023-01-21T15:53:34.259Z,19.17
2023-01-21T15:58:55.538Z,18.67
2023-01-21T16:04:26.417Z,20.30
2023-01-21T16:09:42.586Z,19.48
2023-01-21T16:15:03.241Z,19.80
2023-01-21T16:20:12.613Z,20.67
2023-01-21T16:25:22.212Z,20.02
2023-01-21T16:30:30.987Z,21.25
2023-01-21T16:35:50.299Z,20.52
2023-01-21T16:41:25.301Z,21.75
2023-01-21T16:46:34.616Z,19.02
2023-01-21T16:51:45.188Z,21.92
2023-01-21T16:56:52.107Z,25.55
2023-01-21T17:01:58.333Z,34.72
2023-01-21T17:07:05.833Z,40.80
2023-01-21T17:12:28.222Z,45.47
2023-01-21T17:17:37.119Z,45.08
2023-01-21T17:22:44.414Z,54.58
2023-01-21T17:27:49.730Z,47.88
2023-01-21T17:32:56.752Z,45.53
2023-01-21T17:38:05.420Z,49.17
2023-01-21T17:43:22.540Z,44.35
2023-01-21T17:48:31.272Z,41.70
2023-01-21T17:53:42.941Z,41.03
2023-01-21T17:58:51.930Z,40.70
2023-01-21T18:03:56.778Z,39.78
2023-01-21T18:09:03.888Z,37.80
2023-01-21T18:14:12.161Z,38.28
2023-01-21T18:19:32.164Z,39.33
2023-01-21T18:24:38.557Z,45.95
2023-01-21T18:29:43.719Z,40.45
2023-01-21T18:39:53.367Z,41.67
2023-01-21T18:44:57.815Z,42.50
2023-01-21T18:50:03.722Z,43.15
2023-01-21T18:55:11.373Z,44.25
2023-01-21T19:00:24.181Z,43.90
2023-01-21T19:05:33.997Z,43.17
2023-01-21T19:10:40.091Z,39.58
2023-01-21T19:15:45.358Z,37.08
2023-01-21T19:20:50.086Z,29.42
2023-01-21T19:25:57.189Z,31.90
2023-01-21T19:31:02.312Z,30.60
2023-01-21T19:36:16.157Z,29.13
2023-01-21T19:41:22.307Z,28.02
2023-01-21T19:46:29.083Z,29.08
2023-01-21T19:51:33.990Z,27.98
2023-01-21T19:56:39.981Z,30.95
2023-01-21T20:01:45.668Z,32.97
2023-01-21T20:06:50.361Z,32.72
2023-01-21T20:11:56.574Z,29.05
2023-01-21T20:17:02.893Z,32.75
2023-01-21T20:22:07.820Z,32.22
2023-01-21T20:27:15.620Z,32.13
2023-01-21T20:32:20.828Z,33.35
2023-01-21T20:37:26.073Z,31.42
2023-01-21T20:42:32.132Z,32.35
2023-01-21T20:47:38.484Z,31.10
2023-01-21T20:52:43.513Z,35.78
2023-01-21T20:57:49.329Z,34.50
2023-01-21T21:02:55.642Z,33.55
2023-01-21T21:08:00.604Z,37.92
2023-01-21T21:13:07.780Z,37.85
2023-01-21T21:18:14.504Z,36.60
2023-01-21T21:23:18.773Z,38.28
2023-01-21T21:28:24.381Z,45.38
2023-01-21T21:33:28.853Z,46.42
2023-01-21T21:38:33.588Z,49.47
2023-01-21T21:43:42.194Z,44.75
2023-01-21T21:48:46.694Z,41.17
2023-01-21T21:53:51.787Z,38.28
2023-01-21T21:58:57.677Z,36.70
2023-01-21T22:04:03.187Z,38.08
2023-01-21T22:09:09.900Z,32.15
2023-01-21T22:14:15.948Z,34.35
2023-01-21T22:19:20.277Z,38.55
2023-01-21T22:24:24.718Z,39.03
2023-01-21T22:29:30.625Z,41.42
2023-01-21T22:34:35.483Z,41.50
2023-01-21T22:44:46.033Z,35.30
2023-01-21T22:49:50.926Z,35.88
2023-01-21T22:54:55.600Z,36.90
2023-01-21T23:00:02.417Z,34.85
2023-01-21T23:05:07.688Z,33.75
2023-01-21T23:11:04.025Z,32.45
2023-01-21T23:16:12.279Z,30.40
2023-01-21T23:21:19.546Z,29.17
2023-01-21T23:26:24.377Z,31.23
2023-01-21T23:36:34.647Z,31.60
2023-01-21T23:41:39.186Z,30.52
2023-01-21T23:46:45.335Z,28.42
2023-01-21T23:51:49.993Z,26.42
2023-01-21T23:56:56.239Z,24.73
